Terminal Aerodrome Forecast
Issued by NWS

Home | Current Version | Previous Version | Text Only | Print | Product List | Glossary On
Versions: 1 2 3 4 5 6 7 8 9 10 11 12 13 14 15 16
324
FTUS42 KFFC 190529
TAFRYY
TAF
KRYY 190529Z 1906/2006 26004KT P6SM FEW250
     FM191400 29004KT P6SM FEW030
     FM191800 28007KT P6SM SCT045
     FM200200 28004KT P6SM FEW050 SCT250=

USA.gov is the U.S. government's official web portal to all federal, state and local government web resources and services.